sensor_id;sensor_type;location;lat;lon;timestamp;P1;durP1;ratioP1;P2;durP2;ratioP2
55212;SDS011;41083;52.932;6.674;2023-05-03T00:01:28;1.73;;;0.70;;
55212;SDS011;41083;52.932;6.674;2023-05-03T00:03:54;1.05;;;0.60;;
55212;SDS011;41083;52.932;6.674;2023-05-03T00:06:20;0.98;;;0.60;;
55212;SDS011;41083;52.932;6.674;2023-05-03T00:08:46;0.77;;;0.50;;
55212;SDS011;41083;52.932;6.674;2023-05-03T00:11:11;0.50;;;0.40;;
55212;SDS011;41083;52.932;6.674;2023-05-03T00:13:37;1.58;;;0.40;;
55212;SDS011;41083;52.932;6.674;2023-05-03T00:16:03;0.65;;;0.40;;
55212;SDS011;41083;52.932;6.674;2023-05-03T00:18:29;1.30;;;0.70;;
55212;SDS011;41083;52.932;6.674;2023-05-03T00:20:55;3.15;;;0.93;;
55212;SDS011;41083;52.932;6.674;2023-05-03T00:23:21;0.98;;;0.57;;
55212;SDS011;41083;52.932;6.674;2023-05-03T00:25:51;1.23;;;0.70;;
55212;SDS011;41083;52.932;6.674;2023-05-03T00:28:20;0.85;;;0.40;;
55212;SDS011;41083;52.932;6.674;2023-05-03T00:30:47;0.75;;;0.50;;
55212;SDS011;41083;52.932;6.674;2023-05-03T00:33:13;1.38;;;0.65;;
55212;SDS011;41083;52.932;6.674;2023-05-03T00:35:39;0.98;;;0.50;;
55212;SDS011;41083;52.932;6.674;2023-05-03T00:38:04;1.02;;;0.60;;
55212;SDS011;41083;52.932;6.674;2023-05-03T00:40:30;1.35;;;0.55;;
55212;SDS011;41083;52.932;6.674;2023-05-03T00:42:56;0.82;;;0.50;;
55212;SDS011;41083;52.932;6.674;2023-05-03T00:45:21;0.95;;;0.50;;
55212;SDS011;41083;52.932;6.674;2023-05-03T00:47:47;0.63;;;0.40;;
55212;SDS011;41083;52.932;6.674;2023-05-03T00:50:13;1.98;;;0.68;;
55212;SDS011;41083;52.932;6.674;2023-05-03T00:52:39;3.58;;;0.50;;
55212;SDS011;41083;52.932;6.674;2023-05-03T00:55:05;1.45;;;0.60;;
55212;SDS011;41083;52.932;6.674;2023-05-03T00:57:32;0.88;;;0.50;;
55212;SDS011;41083;52.932;6.674;2023-05-03T00:59:58;1.15;;;0.50;;
55212;SDS011;41083;52.932;6.674;2023-05-03T01:02:24;1.02;;;0.70;;
55212;SDS011;41083;52.932;6.674;2023-05-03T01:04:50;2.58;;;1.15;;
55212;SDS011;41083;52.932;6.674;2023-05-03T01:10:16;1.20;;;0.75;;
55212;SDS011;41083;52.932;6.674;2023-05-03T01:15:59;2.30;;;0.50;;
55212;SDS011;41083;52.932;6.674;2023-05-03T01:18:36;1.15;;;0.57;;
55212;SDS011;41083;52.932;6.674;2023-05-03T01:21:03;2.63;;;0.60;;
55212;SDS011;41083;52.932;6.674;2023-05-03T01:23:42;2.47;;;0.60;;
55212;SDS011;41083;52.932;6.674;2023-05-03T01:26:22;1.15;;;0.60;;
55212;SDS011;41083;52.932;6.674;2023-05-03T01:28:50;2.72;;;0.60;;
55212;SDS011;41083;52.932;6.674;2023-05-03T01:36:56;0.95;;;0.50;;
55212;SDS011;41083;52.932;6.674;2023-05-03T01:39:25;1.20;;;0.60;;
55212;SDS011;41083;52.932;6.674;2023-05-03T01:41:56;3.70;;;0.95;;
55212;SDS011;41083;52.932;6.674;2023-05-03T01:44:23;2.65;;;0.93;;
55212;SDS011;41083;52.932;6.674;2023-05-03T01:46:49;2.25;;;0.68;;
55212;SDS011;41083;52.932;6.674;2023-05-03T01:49:15;1.35;;;0.70;;
55212;SDS011;41083;52.932;6.674;2023-05-03T01:51:40;0.75;;;0.70;;
55212;SDS011;41083;52.932;6.674;2023-05-03T01:54:06;1.85;;;0.52;;
55212;SDS011;41083;52.932;6.674;2023-05-03T01:56:33;1.40;;;0.75;;
55212;SDS011;41083;52.932;6.674;2023-05-03T01:58:59;1.23;;;0.60;;
55212;SDS011;41083;52.932;6.674;2023-05-03T02:01:25;3.15;;;0.80;;
55212;SDS011;41083;52.932;6.674;2023-05-03T02:03:51;2.33;;;0.80;;
55212;SDS011;41083;52.932;6.674;2023-05-03T02:06:16;1.90;;;0.80;;
55212;SDS011;41083;52.932;6.674;2023-05-03T02:08:42;3.17;;;0.70;;
55212;SDS011;41083;52.932;6.674;2023-05-03T02:11:07;1.92;;;0.82;;
55212;SDS011;41083;52.932;6.674;2023-05-03T02:13:33;0.85;;;0.57;;
55212;SDS011;41083;52.932;6.674;2023-05-03T02:16:00;1.58;;;0.68;;
55212;SDS011;41083;52.932;6.674;2023-05-03T02:18:26;1.40;;;0.60;;
55212;SDS011;41083;52.932;6.674;2023-05-03T02:20:55;1.48;;;0.63;;
55212;SDS011;41083;52.932;6.674;2023-05-03T02:23:21;0.70;;;0.50;;
55212;SDS011;41083;52.932;6.674;2023-05-03T02:25:47;0.95;;;0.50;;
55212;SDS011;41083;52.932;6.674;2023-05-03T02:28:13;0.57;;;0.40;;
55212;SDS011;41083;52.932;6.674;2023-05-03T02:30:39;1.08;;;0.52;;
55212;SDS011;41083;52.932;6.674;2023-05-03T02:33:05;2.65;;;0.63;;
55212;SDS011;41083;52.932;6.674;2023-05-03T02:35:31;1.08;;;0.73;;
55212;SDS011;41083;52.932;6.674;2023-05-03T02:37:57;1.90;;;0.60;;
55212;SDS011;41083;52.932;6.674;2023-05-03T02:40:23;2.50;;;0.55;;
55212;SDS011;41083;52.932;6.674;2023-05-03T02:42:49;1.38;;;0.50;;
55212;SDS011;41083;52.932;6.674;2023-05-03T02:45:15;1.50;;;0.70;;
55212;SDS011;41083;52.932;6.674;2023-05-03T02:47:41;2.60;;;0.98;;
55212;SDS011;41083;52.932;6.674;2023-05-03T02:50:07;1.42;;;0.70;;
55212;SDS011;41083;52.932;6.674;2023-05-03T02:52:33;0.85;;;0.60;;
55212;SDS011;41083;52.932;6.674;2023-05-03T02:54:58;2.13;;;0.90;;
55212;SDS011;41083;52.932;6.674;2023-05-03T02:57:24;1.65;;;1.02;;
55212;SDS011;41083;52.932;6.674;2023-05-03T02:59:50;1.23;;;0.57;;
55212;SDS011;41083;52.932;6.674;2023-05-03T03:02:16;1.35;;;0.98;;
55212;SDS011;41083;52.932;6.674;2023-05-03T03:04:41;1.17;;;0.68;;
55212;SDS011;41083;52.932;6.674;2023-05-03T03:07:07;2.38;;;0.50;;
55212;SDS011;41083;52.932;6.674;2023-05-03T03:09:32;0.93;;;0.50;;
55212;SDS011;41083;52.932;6.674;2023-05-03T03:11:59;1.00;;;0.50;;
55212;SDS011;41083;52.932;6.674;2023-05-03T03:14:27;0.98;;;0.55;;
55212;SDS011;41083;52.932;6.674;2023-05-03T03:16:53;2.33;;;0.65;;
55212;SDS011;41083;52.932;6.674;2023-05-03T03:19:18;0.90;;;0.50;;
55212;SDS011;41083;52.932;6.674;2023-05-03T03:21:44;0.73;;;0.55;;
55212;SDS011;41083;52.932;6.674;2023-05-03T03:24:10;1.30;;;0.60;;
55212;SDS011;41083;52.932;6.674;2023-05-03T03:26:35;3.60;;;0.73;;
55212;SDS011;41083;52.932;6.674;2023-05-03T03:29:01;4.15;;;0.75;;
55212;SDS011;41083;52.932;6.674;2023-05-03T03:31:27;3.00;;;1.00;;
55212;SDS011;41083;52.932;6.674;2023-05-03T03:33:52;1.35;;;0.70;;
55212;SDS011;41083;52.932;6.674;2023-05-03T03:36:18;1.27;;;0.73;;
55212;SDS011;41083;52.932;6.674;2023-05-03T03:38:43;0.60;;;0.50;;
55212;SDS011;41083;52.932;6.674;2023-05-03T03:41:09;1.35;;;0.50;;
55212;SDS011;41083;52.932;6.674;2023-05-03T03:43:35;2.47;;;0.80;;
55212;SDS011;41083;52.932;6.674;2023-05-03T03:46:01;1.45;;;0.88;;
55212;SDS011;41083;52.932;6.674;2023-05-03T03:48:26;1.20;;;0.70;;
55212;SDS011;41083;52.932;6.674;2023-05-03T03:50:52;1.35;;;0.80;;
55212;SDS011;41083;52.932;6.674;2023-05-03T03:53:18;1.65;;;0.95;;
55212;SDS011;41083;52.932;6.674;2023-05-03T03:55:43;1.80;;;0.75;;
55212;SDS011;41083;52.932;6.674;2023-05-03T03:58:09;1.42;;;0.70;;
55212;SDS011;41083;52.932;6.674;2023-05-03T04:00:35;2.08;;;0.60;;
55212;SDS011;41083;52.932;6.674;2023-05-03T04:03:01;1.13;;;0.73;;
55212;SDS011;41083;52.932;6.674;2023-05-03T04:05:26;1.67;;;0.70;;
55212;SDS011;41083;52.932;6.674;2023-05-03T04:07:52;2.45;;;1.00;;
55212;SDS011;41083;52.932;6.674;2023-05-03T04:10:18;2.50;;;0.60;;
55212;SDS011;41083;52.932;6.674;2023-05-03T04:12:43;1.92;;;0.60;;
55212;SDS011;41083;52.932;6.674;2023-05-03T04:15:09;0.80;;;0.57;;
55212;SDS011;41083;52.932;6.674;2023-05-03T04:17:35;1.88;;;0.80;;
55212;SDS011;41083;52.932;6.674;2023-05-03T04:20:01;1.75;;;1.00;;
55212;SDS011;41083;52.932;6.674;2023-05-03T04:22:35;1.58;;;0.80;;
55212;SDS011;41083;52.932;6.674;2023-05-03T04:25:04;1.92;;;0.70;;
55212;SDS011;41083;52.932;6.674;2023-05-03T04:27:30;1.85;;;1.05;;
55212;SDS011;41083;52.932;6.674;2023-05-03T04:29:57;3.40;;;1.20;;
55212;SDS011;41083;52.932;6.674;2023-05-03T04:32:24;3.47;;;1.10;;
55212;SDS011;41083;52.932;6.674;2023-05-03T04:34:49;3.38;;;1.00;;
55212;SDS011;41083;52.932;6.674;2023-05-03T04:37:16;2.20;;;0.90;;
55212;SDS011;41083;52.932;6.674;2023-05-03T04:39:43;1.75;;;1.00;;
55212;SDS011;41083;52.932;6.674;2023-05-03T04:42:10;2.65;;;0.90;;
55212;SDS011;41083;52.932;6.674;2023-05-03T04:44:39;2.08;;;1.08;;
55212;SDS011;41083;52.932;6.674;2023-05-03T04:47:05;2.08;;;0.70;;
55212;SDS011;41083;52.932;6.674;2023-05-03T04:49:31;2.20;;;0.90;;
55212;SDS011;41083;52.932;6.674;2023-05-03T04:51:58;3.30;;;1.05;;
55212;SDS011;41083;52.932;6.674;2023-05-03T04:54:24;1.63;;;0.70;;
55212;SDS011;41083;52.932;6.674;2023-05-03T04:56:50;1.98;;;1.08;;
55212;SDS011;41083;52.932;6.674;2023-05-03T04:59:16;2.50;;;0.75;;
55212;SDS011;41083;52.932;6.674;2023-05-03T05:01:42;1.70;;;0.85;;
55212;SDS011;41083;52.932;6.674;2023-05-03T05:04:07;2.05;;;1.00;;
55212;SDS011;41083;52.932;6.674;2023-05-03T05:06:33;2.42;;;1.20;;
55212;SDS011;41083;52.932;6.674;2023-05-03T05:08:59;2.47;;;0.77;;
55212;SDS011;41083;52.932;6.674;2023-05-03T05:11:24;1.60;;;0.85;;
55212;SDS011;41083;52.932;6.674;2023-05-03T05:13:51;1.60;;;0.90;;
55212;SDS011;41083;52.932;6.674;2023-05-03T05:16:16;2.60;;;0.90;;
55212;SDS011;41083;52.932;6.674;2023-05-03T05:18:43;1.90;;;1.10;;
55212;SDS011;41083;52.932;6.674;2023-05-03T05:21:09;2.58;;;1.00;;
55212;SDS011;41083;52.932;6.674;2023-05-03T05:23:34;3.08;;;1.00;;
55212;SDS011;41083;52.932;6.674;2023-05-03T05:26:00;2.55;;;1.10;;
55212;SDS011;41083;52.932;6.674;2023-05-03T05:28:26;2.67;;;1.10;;
55212;SDS011;41083;52.932;6.674;2023-05-03T05:30:52;1.83;;;0.98;;
55212;SDS011;41083;52.932;6.674;2023-05-03T05:33:18;3.45;;;1.10;;
55212;SDS011;41083;52.932;6.674;2023-05-03T05:35:44;1.80;;;0.95;;
55212;SDS011;41083;52.932;6.674;2023-05-03T05:38:11;4.25;;;1.30;;
55212;SDS011;41083;52.932;6.674;2023-05-03T05:40:37;1.75;;;0.90;;
55212;SDS011;41083;52.932;6.674;2023-05-03T05:43:03;1.98;;;1.25;;
55212;SDS011;41083;52.932;6.674;2023-05-03T05:45:29;1.95;;;1.08;;
55212;SDS011;41083;52.932;6.674;2023-05-03T05:47:55;2.03;;;1.00;;
55212;SDS011;41083;52.932;6.674;2023-05-03T05:50:20;2.78;;;1.38;;
55212;SDS011;41083;52.932;6.674;2023-05-03T05:52:46;2.97;;;1.30;;
55212;SDS011;41083;52.932;6.674;2023-05-03T05:55:14;2.72;;;1.38;;
55212;SDS011;41083;52.932;6.674;2023-05-03T05:57:40;2.70;;;1.17;;
55212;SDS011;41083;52.932;6.674;2023-05-03T06:00:06;2.55;;;1.27;;
55212;SDS011;41083;52.932;6.674;2023-05-03T06:02:39;2.78;;;1.20;;
55212;SDS011;41083;52.932;6.674;2023-05-03T06:05:05;2.83;;;1.20;;
55212;SDS011;41083;52.932;6.674;2023-05-03T06:07:31;1.98;;;0.93;;
55212;SDS011;41083;52.932;6.674;2023-05-03T06:09:57;2.40;;;1.02;;
55212;SDS011;41083;52.932;6.674;2023-05-03T06:12:22;7.38;;;1.45;;
55212;SDS011;41083;52.932;6.674;2023-05-03T06:14:48;2.55;;;1.08;;
55212;SDS011;41083;52.932;6.674;2023-05-03T06:17:13;2.90;;;1.40;;
55212;SDS011;41083;52.932;6.674;2023-05-03T06:19:39;2.80;;;1.33;;
55212;SDS011;41083;52.932;6.674;2023-05-03T06:22:05;7.32;;;1.60;;
55212;SDS011;41083;52.932;6.674;2023-05-03T06:24:31;2.90;;;1.27;;
55212;SDS011;41083;52.932;6.674;2023-05-03T06:26:57;3.95;;;1.52;;
55212;SDS011;41083;52.932;6.674;2023-05-03T06:29:24;2.15;;;1.00;;
55212;SDS011;41083;52.932;6.674;2023-05-03T06:31:50;3.53;;;1.45;;
55212;SDS011;41083;52.932;6.674;2023-05-03T06:34:17;3.05;;;1.33;;
55212;SDS011;41083;52.932;6.674;2023-05-03T06:36:44;8.90;;;1.60;;
55212;SDS011;41083;52.932;6.674;2023-05-03T06:39:10;2.92;;;1.20;;
55212;SDS011;41083;52.932;6.674;2023-05-03T06:41:35;2.67;;;1.40;;
55212;SDS011;41083;52.932;6.674;2023-05-03T06:44:01;2.38;;;1.20;;
55212;SDS011;41083;52.932;6.674;2023-05-03T06:46:28;4.03;;;1.20;;
55212;SDS011;41083;52.932;6.674;2023-05-03T06:48:54;2.03;;;1.02;;
55212;SDS011;41083;52.932;6.674;2023-05-03T06:51:21;1.90;;;0.90;;
55212;SDS011;41083;52.932;6.674;2023-05-03T06:53:51;8.05;;;1.25;;
55212;SDS011;41083;52.932;6.674;2023-05-03T06:56:21;5.80;;;1.17;;
55212;SDS011;41083;52.932;6.674;2023-05-03T06:58:48;2.78;;;1.45;;
55212;SDS011;41083;52.932;6.674;2023-05-03T07:01:13;2.25;;;1.17;;
55212;SDS011;41083;52.932;6.674;2023-05-03T07:03:41;4.10;;;1.40;;
55212;SDS011;41083;52.932;6.674;2023-05-03T07:06:09;3.50;;;1.05;;
55212;SDS011;41083;52.932;6.674;2023-05-03T07:08:35;2.10;;;1.30;;
55212;SDS011;41083;52.932;6.674;2023-05-03T07:11:02;2.67;;;1.02;;
55212;SDS011;41083;52.932;6.674;2023-05-03T07:13:28;1.42;;;0.90;;
55212;SDS011;41083;52.932;6.674;2023-05-03T07:15:54;2.03;;;0.90;;
55212;SDS011;41083;52.932;6.674;2023-05-03T07:18:19;2.05;;;0.82;;
55212;SDS011;41083;52.932;6.674;2023-05-03T07:20:45;1.60;;;1.13;;
55212;SDS011;41083;52.932;6.674;2023-05-03T07:23:11;1.75;;;0.70;;
55212;SDS011;41083;52.932;6.674;2023-05-03T07:25:36;2.95;;;0.85;;
55212;SDS011;41083;52.932;6.674;2023-05-03T07:28:03;2.33;;;0.95;;
55212;SDS011;41083;52.932;6.674;2023-05-03T07:30:29;2.22;;;0.88;;
55212;SDS011;41083;52.932;6.674;2023-05-03T07:32:54;1.52;;;0.70;;
55212;SDS011;41083;52.932;6.674;2023-05-03T07:35:20;1.15;;;0.70;;
55212;SDS011;41083;52.932;6.674;2023-05-03T07:37:47;1.48;;;0.80;;
55212;SDS011;41083;52.932;6.674;2023-05-03T07:40:12;1.60;;;0.82;;
55212;SDS011;41083;52.932;6.674;2023-05-03T07:42:38;1.38;;;0.70;;
55212;SDS011;41083;52.932;6.674;2023-05-03T07:45:04;1.08;;;0.57;;
55212;SDS011;41083;52.932;6.674;2023-05-03T07:47:30;1.23;;;0.75;;
55212;SDS011;41083;52.932;6.674;2023-05-03T07:49:57;1.17;;;0.75;;
55212;SDS011;41083;52.932;6.674;2023-05-03T07:52:22;3.80;;;1.40;;
55212;SDS011;41083;52.932;6.674;2023-05-03T07:54:48;2.28;;;0.65;;
55212;SDS011;41083;52.932;6.674;2023-05-03T07:57:14;1.10;;;0.77;;
55212;SDS011;41083;52.932;6.674;2023-05-03T07:59:41;1.45;;;0.70;;
55212;SDS011;41083;52.932;6.674;2023-05-03T08:02:07;1.48;;;0.70;;
55212;SDS011;41083;52.932;6.674;2023-05-03T08:04:33;1.27;;;0.60;;
55212;SDS011;41083;52.932;6.674;2023-05-03T08:06:59;2.83;;;0.85;;
55212;SDS011;41083;52.932;6.674;2023-05-03T08:09:26;2.80;;;0.60;;
55212;SDS011;41083;52.932;6.674;2023-05-03T08:11:53;0.57;;;0.50;;
55212;SDS011;41083;52.932;6.674;2023-05-03T08:14:20;1.17;;;0.50;;
55212;SDS011;41083;52.932;6.674;2023-05-03T08:16:46;3.95;;;0.75;;
55212;SDS011;41083;52.932;6.674;2023-05-03T08:19:11;3.67;;;0.95;;
55212;SDS011;41083;52.932;6.674;2023-05-03T08:21:37;1.63;;;0.80;;
55212;SDS011;41083;52.932;6.674;2023-05-03T08:24:03;2.35;;;0.70;;
55212;SDS011;41083;52.932;6.674;2023-05-03T08:26:30;1.45;;;0.75;;
55212;SDS011;41083;52.932;6.674;2023-05-03T08:28:57;1.30;;;0.60;;
55212;SDS011;41083;52.932;6.674;2023-05-03T08:31:24;1.73;;;0.57;;
55212;SDS011;41083;52.932;6.674;2023-05-03T08:33:49;0.85;;;0.47;;
55212;SDS011;41083;52.932;6.674;2023-05-03T08:36:15;2.05;;;0.65;;
55212;SDS011;41083;52.932;6.674;2023-05-03T08:38:41;3.78;;;0.70;;
55212;SDS011;41083;52.932;6.674;2023-05-03T08:41:18;3.08;;;0.80;;
55212;SDS011;41083;52.932;6.674;2023-05-03T08:43:53;1.65;;;0.73;;
55212;SDS011;41083;52.932;6.674;2023-05-03T08:46:19;2.78;;;0.80;;
55212;SDS011;41083;52.932;6.674;2023-05-03T08:48:49;1.70;;;0.90;;
55212;SDS011;41083;52.932;6.674;2023-05-03T08:51:17;1.98;;;0.80;;
55212;SDS011;41083;52.932;6.674;2023-05-03T08:53:43;4.72;;;1.50;;
55212;SDS011;41083;52.932;6.674;2023-05-03T08:56:10;1.13;;;0.68;;
55212;SDS011;41083;52.932;6.674;2023-05-03T08:58:38;1.08;;;0.70;;
55212;SDS011;41083;52.932;6.674;2023-05-03T09:01:05;1.35;;;0.70;;
55212;SDS011;41083;52.932;6.674;2023-05-03T09:03:32;2.30;;;0.70;;
55212;SDS011;41083;52.932;6.674;2023-05-03T09:05:58;2.30;;;0.82;;
55212;SDS011;41083;52.932;6.674;2023-05-03T09:08:30;3.30;;;1.23;;
55212;SDS011;41083;52.932;6.674;2023-05-03T09:11:08;1.90;;;1.00;;
55212;SDS011;41083;52.932;6.674;2023-05-03T09:13:52;1.70;;;0.80;;
55212;SDS011;41083;52.932;6.674;2023-05-03T09:16:24;1.25;;;0.60;;
55212;SDS011;41083;52.932;6.674;2023-05-03T09:19:01;1.40;;;0.82;;
55212;SDS011;41083;52.932;6.674;2023-05-03T09:21:28;2.22;;;1.00;;
55212;SDS011;41083;52.932;6.674;2023-05-03T09:23:57;3.17;;;0.90;;
55212;SDS011;41083;52.932;6.674;2023-05-03T09:26:30;2.00;;;0.90;;
55212;SDS011;41083;52.932;6.674;2023-05-03T09:28:57;0.85;;;0.68;;
55212;SDS011;41083;52.932;6.674;2023-05-03T09:31:24;1.83;;;1.00;;
55212;SDS011;41083;52.932;6.674;2023-05-03T09:33:50;2.38;;;1.08;;
55212;SDS011;41083;52.932;6.674;2023-05-03T09:36:17;1.83;;;0.93;;
55212;SDS011;41083;52.932;6.674;2023-05-03T09:38:43;1.83;;;1.00;;
55212;SDS011;41083;52.932;6.674;2023-05-03T09:41:09;1.83;;;1.02;;
55212;SDS011;41083;52.932;6.674;2023-05-03T09:43:35;5.45;;;1.10;;
55212;SDS011;41083;52.932;6.674;2023-05-03T09:46:16;2.17;;;0.80;;
55212;SDS011;41083;52.932;6.674;2023-05-03T09:48:43;1.63;;;0.90;;
55212;SDS011;41083;52.932;6.674;2023-05-03T09:51:09;1.70;;;0.73;;
55212;SDS011;41083;52.932;6.674;2023-05-03T09:53:36;3.38;;;0.98;;
55212;SDS011;41083;52.932;6.674;2023-05-03T09:56:03;1.77;;;1.02;;
55212;SDS011;41083;52.932;6.674;2023-05-03T09:58:32;1.80;;;0.95;;
55212;SDS011;41083;52.932;6.674;2023-05-03T10:00:59;1.58;;;0.90;;
55212;SDS011;41083;52.932;6.674;2023-05-03T10:03:38;2.38;;;1.00;;
55212;SDS011;41083;52.932;6.674;2023-05-03T10:06:10;2.75;;;1.00;;
55212;SDS011;41083;52.932;6.674;2023-05-03T10:08:43;1.70;;;1.02;;
55212;SDS011;41083;52.932;6.674;2023-05-03T10:11:32;1.60;;;1.10;;
55212;SDS011;41083;52.932;6.674;2023-05-03T10:14:00;1.67;;;1.10;;
55212;SDS011;41083;52.932;6.674;2023-05-03T10:16:28;2.03;;;0.90;;
55212;SDS011;41083;52.932;6.674;2023-05-03T10:19:06;2.63;;;1.08;;
55212;SDS011;41083;52.932;6.674;2023-05-03T10:21:52;2.28;;;1.40;;
55212;SDS011;41083;52.932;6.674;2023-05-03T10:24:23;2.63;;;1.45;;
55212;SDS011;41083;52.932;6.674;2023-05-03T10:26:49;3.92;;;1.48;;
55212;SDS011;41083;52.932;6.674;2023-05-03T10:32:00;2.20;;;1.05;;
55212;SDS011;41083;52.932;6.674;2023-05-03T10:34:36;1.60;;;1.00;;
55212;SDS011;41083;52.932;6.674;2023-05-03T10:37:10;2.95;;;0.95;;
55212;SDS011;41083;52.932;6.674;2023-05-03T10:39:35;1.70;;;1.05;;
55212;SDS011;41083;52.932;6.674;2023-05-03T10:42:02;1.52;;;1.00;;
55212;SDS011;41083;52.932;6.674;2023-05-03T10:45:05;1.55;;;1.10;;
55212;SDS011;41083;52.932;6.674;2023-05-03T10:47:25;2.15;;;1.10;;
55212;SDS011;41083;52.932;6.674;2023-05-03T10:57:56;1.55;;;1.05;;
55212;SDS011;41083;52.932;6.674;2023-05-03T11:00:28;6.47;;;1.30;;
55212;SDS011;41083;52.932;6.674;2023-05-03T11:05:54;1.70;;;0.90;;
55212;SDS011;41083;52.932;6.674;2023-05-03T11:08:21;2.00;;;1.08;;
55212;SDS011;41083;52.932;6.674;2023-05-03T11:10:55;1.70;;;1.10;;
55212;SDS011;41083;52.932;6.674;2023-05-03T11:13:23;1.73;;;1.15;;
55212;SDS011;41083;52.932;6.674;2023-05-03T11:15:48;1.83;;;1.00;;
55212;SDS011;41083;52.932;6.674;2023-05-03T11:18:14;2.40;;;0.95;;
55212;SDS011;41083;52.932;6.674;2023-05-03T11:20:40;1.90;;;1.10;;
55212;SDS011;41083;52.932;6.674;2023-05-03T11:23:06;1.80;;;1.20;;
55212;SDS011;41083;52.932;6.674;2023-05-03T11:25:32;1.77;;;1.08;;
55212;SDS011;41083;52.932;6.674;2023-05-03T11:27:59;2.30;;;1.23;;
55212;SDS011;41083;52.932;6.674;2023-05-03T11:30:26;2.00;;;1.08;;
55212;SDS011;41083;52.932;6.674;2023-05-03T11:32:52;3.85;;;1.00;;
55212;SDS011;41083;52.932;6.674;2023-05-03T11:35:18;2.85;;;0.93;;
55212;SDS011;41083;52.932;6.674;2023-05-03T11:37:47;2.72;;;1.17;;
55212;SDS011;41083;52.932;6.674;2023-05-03T11:40:14;3.45;;;1.25;;
55212;SDS011;41083;52.932;6.674;2023-05-03T11:42:53;2.72;;;1.08;;
55212;SDS011;41083;52.932;6.674;2023-05-03T11:45:23;1.30;;;0.90;;
55212;SDS011;41083;52.932;6.674;2023-05-03T11:47:50;2.17;;;1.10;;
55212;SDS011;41083;52.932;6.674;2023-05-03T11:50:17;2.63;;;1.05;;
55212;SDS011;41083;52.932;6.674;2023-05-03T11:52:50;1.65;;;1.08;;
55212;SDS011;41083;52.932;6.674;2023-05-03T11:55:16;2.75;;;1.48;;
55212;SDS011;41083;52.932;6.674;2023-05-03T11:57:43;4.13;;;1.33;;
55212;SDS011;41083;52.932;6.674;2023-05-03T12:00:12;2.45;;;1.30;;
55212;SDS011;41083;52.932;6.674;2023-05-03T12:02:41;3.80;;;1.30;;
55212;SDS011;41083;52.932;6.674;2023-05-03T12:07:42;2.85;;;1.30;;
55212;SDS011;41083;52.932;6.674;2023-05-03T12:10:12;2.53;;;0.98;;
55212;SDS011;41083;52.932;6.674;2023-05-03T12:12:51;2.25;;;1.20;;
55212;SDS011;41083;52.932;6.674;2023-05-03T12:15:25;2.22;;;1.25;;
55212;SDS011;41083;52.932;6.674;2023-05-03T12:17:54;1.92;;;1.20;;
55212;SDS011;41083;52.932;6.674;2023-05-03T12:20:21;2.58;;;1.13;;
55212;SDS011;41083;52.932;6.674;2023-05-03T12:22:51;2.97;;;1.30;;
55212;SDS011;41083;52.932;6.674;2023-05-03T12:25:19;1.80;;;1.10;;
55212;SDS011;41083;52.932;6.674;2023-05-03T12:27:46;1.63;;;1.10;;
55212;SDS011;41083;52.932;6.674;2023-05-03T12:30:12;1.75;;;0.90;;
55212;SDS011;41083;52.932;6.674;2023-05-03T12:32:38;1.45;;;0.80;;
55212;SDS011;41083;52.932;6.674;2023-05-03T12:35:04;2.38;;;1.33;;
55212;SDS011;41083;52.932;6.674;2023-05-03T12:37:31;2.33;;;1.25;;
55212;SDS011;41083;52.932;6.674;2023-05-03T12:39:56;2.28;;;0.95;;
55212;SDS011;41083;52.932;6.674;2023-05-03T13:08:13;2.90;;;1.30;;
55212;SDS011;41083;52.932;6.674;2023-05-03T13:10:38;1.88;;;1.10;;
55212;SDS011;41083;52.932;6.674;2023-05-03T13:13:05;2.33;;;1.30;;
55212;SDS011;41083;52.932;6.674;2023-05-03T13:15:32;3.17;;;1.10;;
55212;SDS011;41083;52.932;6.674;2023-05-03T13:17:59;1.48;;;1.10;;
55212;SDS011;41083;52.932;6.674;2023-05-03T13:20:26;3.47;;;0.95;;
55212;SDS011;41083;52.932;6.674;2023-05-03T13:22:51;2.20;;;1.13;;
55212;SDS011;41083;52.932;6.674;2023-05-03T13:25:17;2.20;;;1.20;;
55212;SDS011;41083;52.932;6.674;2023-05-03T13:27:43;1.95;;;1.13;;
55212;SDS011;41083;52.932;6.674;2023-05-03T13:30:10;2.45;;;0.98;;
55212;SDS011;41083;52.932;6.674;2023-05-03T13:32:38;2.50;;;1.30;;
55212;SDS011;41083;52.932;6.674;2023-05-03T13:35:04;1.25;;;0.93;;
55212;SDS011;41083;52.932;6.674;2023-05-03T13:37:31;2.88;;;1.40;;
55212;SDS011;41083;52.932;6.674;2023-05-03T13:39:57;2.58;;;1.55;;
55212;SDS011;41083;52.932;6.674;2023-05-03T13:42:22;2.67;;;1.30;;
55212;SDS011;41083;52.932;6.674;2023-05-03T13:44:48;4.32;;;1.20;;
55212;SDS011;41083;52.932;6.674;2023-05-03T13:47:14;3.30;;;1.40;;
55212;SDS011;41083;52.932;6.674;2023-05-03T13:49:39;1.80;;;0.98;;
55212;SDS011;41083;52.932;6.674;2023-05-03T13:52:05;2.30;;;1.40;;
55212;SDS011;41083;52.932;6.674;2023-05-03T13:54:31;3.03;;;1.13;;
55212;SDS011;41083;52.932;6.674;2023-05-03T13:56:56;2.03;;;1.10;;
55212;SDS011;41083;52.932;6.674;2023-05-03T13:59:22;2.58;;;1.38;;
55212;SDS011;41083;52.932;6.674;2023-05-03T14:01:48;3.28;;;1.38;;
55212;SDS011;41083;52.932;6.674;2023-05-03T14:04:14;2.58;;;1.70;;
55212;SDS011;41083;52.932;6.674;2023-05-03T14:06:40;1.60;;;1.00;;
55212;SDS011;41083;52.932;6.674;2023-05-03T14:09:05;2.90;;;1.10;;
55212;SDS011;41083;52.932;6.674;2023-05-03T14:11:31;3.45;;;1.15;;
55212;SDS011;41083;52.932;6.674;2023-05-03T14:13:57;2.63;;;1.08;;
55212;SDS011;41083;52.932;6.674;2023-05-03T14:16:23;5.25;;;1.60;;
55212;SDS011;41083;52.932;6.674;2023-05-03T14:18:51;4.60;;;1.20;;
55212;SDS011;41083;52.932;6.674;2023-05-03T14:21:17;2.83;;;1.30;;
55212;SDS011;41083;52.932;6.674;2023-05-03T14:23:44;2.35;;;1.48;;
55212;SDS011;41083;52.932;6.674;2023-05-03T14:26:10;3.45;;;1.38;;
55212;SDS011;41083;52.932;6.674;2023-05-03T14:28:36;1.90;;;1.30;;
55212;SDS011;41083;52.932;6.674;2023-05-03T14:31:02;3.83;;;1.20;;
55212;SDS011;41083;52.932;6.674;2023-05-03T14:33:29;4.13;;;1.30;;
55212;SDS011;41083;52.932;6.674;2023-05-03T14:35:54;3.03;;;1.30;;
55212;SDS011;41083;52.932;6.674;2023-05-03T14:38:20;2.95;;;1.30;;
55212;SDS011;41083;52.932;6.674;2023-05-03T14:40:46;2.72;;;1.23;;
55212;SDS011;41083;52.932;6.674;2023-05-03T14:43:12;3.15;;;1.33;;
55212;SDS011;41083;52.932;6.674;2023-05-03T14:45:39;2.15;;;1.27;;
55212;SDS011;41083;52.932;6.674;2023-05-03T14:48:05;2.90;;;1.30;;
55212;SDS011;41083;52.932;6.674;2023-05-03T14:50:31;3.35;;;1.30;;
55212;SDS011;41083;52.932;6.674;2023-05-03T14:52:57;2.47;;;1.40;;
55212;SDS011;41083;52.932;6.674;2023-05-03T14:55:22;2.17;;;1.20;;
55212;SDS011;41083;52.932;6.674;2023-05-03T14:57:48;2.30;;;1.30;;
55212;SDS011;41083;52.932;6.674;2023-05-03T15:00:14;1.88;;;1.10;;
55212;SDS011;41083;52.932;6.674;2023-05-03T15:02:40;2.78;;;1.40;;
55212;SDS011;41083;52.932;6.674;2023-05-03T15:05:06;1.83;;;1.15;;
55212;SDS011;41083;52.932;6.674;2023-05-03T15:07:32;2.83;;;1.23;;
55212;SDS011;41083;52.932;6.674;2023-05-03T15:10:01;3.45;;;1.40;;
55212;SDS011;41083;52.932;6.674;2023-05-03T15:12:28;6.95;;;1.45;;
55212;SDS011;41083;52.932;6.674;2023-05-03T15:14:54;4.15;;;1.33;;
55212;SDS011;41083;52.932;6.674;2023-05-03T15:17:19;2.08;;;1.17;;
55212;SDS011;41083;52.932;6.674;2023-05-03T15:19:47;3.20;;;1.48;;
55212;SDS011;41083;52.932;6.674;2023-05-03T15:22:12;2.80;;;1.23;;
55212;SDS011;41083;52.932;6.674;2023-05-03T15:24:38;2.38;;;1.30;;
55212;SDS011;41083;52.932;6.674;2023-05-03T15:27:05;2.03;;;1.23;;
55212;SDS011;41083;52.932;6.674;2023-05-03T15:29:31;3.22;;;1.48;;
55212;SDS011;41083;52.932;6.674;2023-05-03T15:31:57;3.47;;;1.50;;
55212;SDS011;41083;52.932;6.674;2023-05-03T15:34:23;2.47;;;1.30;;
55212;SDS011;41083;52.932;6.674;2023-05-03T15:36:48;4.30;;;1.23;;
55212;SDS011;41083;52.932;6.674;2023-05-03T15:39:14;1.98;;;1.08;;
55212;SDS011;41083;52.932;6.674;2023-05-03T15:41:39;2.55;;;1.20;;